Dyersville, Iowa
Current Conditions -  °F | °C
As of 12:15 PM on Monday 26 Jan 2015 (Local Time) from KMXO Reporting Station
Overcast Overcast  
Wind Chill: 17°   Ceiling: 800
Heat Index: 27°   Visibility: 9mi
Dew Point: 27°   Wind: 10mph
Humidity: 100%   Direction: 180°S
Pressure: 29.79"   Gusts: NA
Location:  42.48°N, 91.12°W
Report Text: KMXO 261815Z AUTO 18009KT 9SM OVC008 M03/M03 A2979 RMK AO2
Loading
Personal Weather Stations






























Interactive Weather Map New forecast layout! Learn more

10-Day Weather Forecast

Advertisements
Track Severe Weather on mobile